Terminal Aerodrome Forecast
Issued by NWS Lake Charles, LA

Home | Current Version | Previous Version | Text Only | Print | Product List | Glossary On
Versions: 1 2 3 4 5 6 7 8 9 10 11 12 13 14 15 16 17 18
945
FTUS44 KLCH 302320
TAFARA
TAF
KARA 302320Z 0100/0124 29010KT P6SM BKN100
     FM010200 VRB05KT P6SM SKC
     FM011500 31009KT P6SM SKC=

USA.gov is the U.S. government's official web portal to all federal, state and local government web resources and services.